Flight Track Log - Related Links

Times and Time Zones

All times are in EDT time to prevent confusion due to time zone crossing. See the N900TG flight status page for this flight to view local times or setup timezone preferences in your user account.


Time Position Orientation Groundspeed Altitude Reporting Facility
EDT Latitude Longitude Course Direction KTS MPH feet Rate Location/Type
Thu 11:56:43 AM 41.1796 -74.2300 262° West 14,500  Level FlightAware ADS-B
Thu 11:57:15 AM 41.1744 -74.2965 264° West 349 402 16,300 3,188 Climbing FlightAware ADS-B
Thu 11:57:47 AM 41.1795 -74.3640 276° West 340 391 17,900 1,818 Climbing FlightAware ADS-B
Thu 11:58:21 AM 41.1955 -74.4367 286° West 383 441 18,300 971 Climbing FlightAware ADS-B
Thu 11:58:55 AM 41.2159 -74.5096 290° West 405 466 19,000 1,455 Climbing FlightAware ADS-B
Thu 11:59:27 AM 41.2342 -74.5777 290° West 367 422 19,900 1,839 Climbing FlightAware ADS-B
Thu 11:59:57 AM 41.2528 -74.6463 290° West 398 458 20,900 1,714 Climbing FlightAware ADS-B
Thu 12:00:30 PM 41.2721 -74.7180 290° West 409 471 21,700 1,500 Climbing FlightAware ADS-B
Thu 12:01:01 PM 41.2910 -74.7883 290° West 394 453 22,500 1,672 Climbing FlightAware ADS-B
Thu 12:01:31 PM 41.3096 -74.8571 290° West 399 459 23,400 1,377 Climbing FlightAware ADS-B
Thu 12:02:02 PM 41.3290 -74.9291 290° West 375 432 23,900 1,125 Climbing FlightAware ADS-B
Thu 12:02:35 PM 41.3500 -75.0076 290° West 427 491 24,600 1,238 Climbing FlightAware ADS-B
Thu 12:03:05 PM 41.3693 -75.0798 290° West 404 465 25,200 1,219 Climbing FlightAware ADS-B
Thu 12:03:39 PM 41.3915 -75.1628 290° West 401 461 25,900 1,200 Climbing FlightAware ADS-B
Thu 12:04:10 PM 41.4118 -75.2392 290° West 406 467 26,500 1,180 Climbing FlightAware ADS-B
Thu 12:04:40 PM 41.4315 -75.3138 289° West 425 489 27,100 1,143 Climbing FlightAware ADS-B
Thu 12:05:13 PM 41.4540 -75.3990 289° West 409 471 27,700 1,059 Climbing FlightAware ADS-B
Thu 12:05:48 PM 41.4768 -75.4849 290° West 452 520 28,300 1,108 Climbing FlightAware ADS-B
Thu 12:06:18 PM 41.4992 -75.5631 291° West 442 509 28,900 1,031 Climbing FlightAware ADS-B
Thu 12:06:52 PM 41.5232 -75.6469 291° West 437 503 29,400 1,015 Climbing FlightAware ADS-B
Thu 12:07:23 PM 41.5466 -75.7286 291° West 468 539 30,000 1,048 Climbing FlightAware ADS-B
Thu 12:07:55 PM 41.5692 -75.8078 291° West 439 505 30,500 968 Climbing FlightAware ADS-B
Thu 12:08:25 PM 41.5911 -75.8846 291° West 422 486 31,000 677 Climbing FlightAware ADS-B
Thu 12:08:57 PM 41.6152 -75.9698 291° West 448 516 31,200 476 Climbing FlightAware ADS-B
Thu 12:09:28 PM 41.6375 -76.0487 291° West 453 521 31,500 762 Climbing FlightAware ADS-B
Thu 12:10:00 PM 41.6618 -76.1351 291° West 479 551 32,000 952 Climbing FlightAware ADS-B
Thu 12:10:31 PM 41.6838 -76.2132 291° West 446 513 32,500 984 Climbing FlightAware ADS-B
Thu 12:11:01 PM 41.7055 -76.2909 291° West 442 509 33,000 1,012 Climbing FlightAware ADS-B
Thu 12:11:54 PM 41.7435 -76.4271 291° West 426 490 33,900 1,012 Climbing FlightAware ADS-B
Thu 12:12:24 PM 41.7646 -76.5034 290° West 437 503 34,400 984 Climbing FlightAware ADS-B
Thu 12:12:55 PM 41.7870 -76.5844 290° West 447 514 34,900 51 Climbing FlightAware ADS-B
Thu 02:26:56 PM 46.5000 -96.5850 180° South 44,200 47 Climbing FlightAware ADS-B
Thu 02:27:36 PM 44.6520 -96.7250 183° South 41,300 -2,806 Descending FlightAware ADS-B
Thu 02:27:58 PM 44.6570 -96.7720 279° West 366 421 41,300  Level FlightAware ADS-B
Thu 02:28:34 PM 44.6660 -96.8580 278° West 401 461 41,300  Level FlightAware ADS-B
Thu 02:29:08 PM 44.6740 -96.9330 279° West 279 321 41,300  Level FlightAware ADS-B
Thu 02:30:02 PM 44.6870 -97.0560 278° West 356 410 41,300 -325 Level FlightAware ADS-B
Thu 02:32:32 PM 44.7210 -97.3890 278° West 41,400 -419 Climbing FlightAware ADS-B
Thu 02:33:08 PM 44.7286 -97.4653 278° West 345 397 40,000 -857 Descending Minneapolis Center
Thu 02:34:10 PM 44.7422 -97.5983 278° West 346 398 40,000  Level Minneapolis Center
Thu 02:39:53 PM 44.8170 -98.3720 278° West 41,400  Climbing FlightAware ADS-B
Thu 02:40:23 PM 44.8217 -98.4178 278° West 346 398 40,000 -913 Descending Minneapolis Center
Thu 02:41:25 PM 44.8339 -98.5519 277° West 345 397 40,000  Level Minneapolis Center
Thu 02:42:27 PM 44.8483 -98.7133 277° West 346 398 40,000  Level Minneapolis Center
Thu 02:43:29 PM 44.8603 -98.8478 277° West 345 397 40,000  Level Minneapolis Center
Thu 02:44:31 PM 44.8714 -98.9822 277° West 346 398 40,000  Level Minneapolis Center
Thu 02:45:33 PM 44.8836 -99.1186 277° West 349 402 40,000  Level Minneapolis Center
Thu 02:46:36 PM 44.8956 -99.2533 277° West 347 399 40,000  Level Minneapolis Center
Thu 02:47:38 PM 44.9069 -99.3875 277° West 345 397 40,000  Level Minneapolis Center
Thu 02:48:52 PM 44.9217 -99.5775 276° West 346 398 40,000  Level Minneapolis Center
Thu 02:49:54 PM 44.9331 -99.7136 277° West 347 399 40,000  Level Minneapolis Center
Thu 02:50:56 PM 44.9425 -99.8514 276° West 348 400 40,000  Level Minneapolis Center
Thu 02:51:58 PM 44.9525 -99.9947 276° West 358 412 40,000  Level Minneapolis Center
Thu 02:53:00 PM 44.9656 -100.1361 277° West 354 407 40,000  Level Minneapolis Center
Thu 02:54:03 PM 44.9769 -100.2722 277° West 348 400 40,000  Level Minneapolis Center
Thu 02:55:05 PM 44.9878 -100.4103 276° West 350 403 40,000  Level Minneapolis Center
Thu 02:56:07 PM 44.9986 -100.5469 276° West 352 405 40,000  Level Minneapolis Center
Thu 02:57:09 PM 45.0078 -100.6842 275° West 351 404 40,000  Level Minneapolis Center
Thu 02:58:11 PM 45.0203 -100.8503 276° West 354 407 40,000  Level Minneapolis Center
Thu 02:59:13 PM 45.0294 -100.9889 275° West 354 407 40,000  Level Minneapolis Center
Thu 03:00:16 PM 45.0403 -101.1272 276° West 355 409 40,000  Level Minneapolis Center
Thu 03:01:18 PM 45.0497 -101.2667 276° West 356 410 40,000  Level Minneapolis Center
Thu 03:02:20 PM 45.0594 -101.4056 276° West 355 409 40,000  Level Minneapolis Center
Thu 03:03:22 PM 45.0703 -101.5725 275° West 356 410 40,000  Level Minneapolis Center
Thu 03:04:24 PM 45.0797 -101.7119 276° West 356 410 40,000  Level Minneapolis Center
Thu 03:05:27 PM 45.0967 -101.8500 280° West 356 410 40,000  Level Minneapolis Center
Thu 03:06:29 PM 45.1172 -101.9875 282° West 357 411 40,000  Level Minneapolis Center
Thu 03:07:31 PM 45.1356 -102.1242 281° West 355 409 40,000  Level Minneapolis Center
Thu 03:08:33 PM 45.1531 -102.2617 280° West 355 409 40,000  Level Minneapolis Center
Thu 03:09:35 PM 45.1756 -102.4283 281° West 358 412 40,000  Level Minneapolis Center
Thu 03:10:37 PM 45.1936 -102.5667 281° West 358 412 40,000  Level Minneapolis Center
Thu 03:11:39 PM 45.2122 -102.7058 281° West 358 412 40,000  Level Minneapolis Center
Thu 03:12:41 PM 45.2286 -102.8461 279° West 360 414 40,000  Level Minneapolis Center
Thu 03:13:43 PM 45.2475 -102.9844 281° West 359 413 40,000  Level Minneapolis Center
Thu 03:14:45 PM 45.2639 -103.1233 280° West 357 411 40,000  Level Minneapolis Center
Thu 03:15:47 PM 45.2814 -103.2606 280° West 355 409 40,000  Level Minneapolis Center
Thu 03:16:49 PM 45.3008 -103.4156 280° West 353 406 40,000  Level Minneapolis Center
Thu 03:17:52 PM 45.3164 -103.5525 279° West 352 405 40,000  Level Minneapolis Center
Thu 03:18:54 PM 45.3336 -103.6897 280° West 353 406 40,000  Level Minneapolis Center
Thu 03:19:56 PM 45.3489 -103.8269 279° West 353 406 40,000  Level Minneapolis Center
Thu 03:20:58 PM 45.3694 -103.9919 280° West 354 407 40,000  Level Minneapolis Center
Thu 03:22:00 PM 45.3842 -104.1292 279° West 353 406 40,000  Level Minneapolis Center
Thu 03:23:02 PM 45.4003 -104.2675 279° West 354 407 40,000 -48 Level Minneapolis Center
Thu 03:24:04 PM 45.4158 -104.4061 279° West 354 407 39,900  Descending Minneapolis Center
Thu 03:25:06 PM 45.4317 -104.5436 279° West 353 406 40,000 41 Climbing Minneapolis Center
Thu 03:26:30 PM 45.4517 -104.7400 278° West 356 410 40,000  Level Salt Lake Center
Thu 03:27:32 PM 45.4681 -104.8783 280° West 356 410 40,000  Level Salt Lake Center
Thu 03:28:34 PM 45.4831 -105.0181 279° West 358 412 40,000  Level Salt Lake Center
Thu 03:29:36 PM 45.5019 -105.1864 279° West 358 412 40,000  Level Salt Lake Center
Thu 03:30:38 PM 45.5161 -105.3253 278° West 357 411 40,000  Level Salt Lake Center
Thu 03:31:40 PM 45.5308 -105.4661 279° West 358 412 40,000  Level Salt Lake Center
Thu 03:32:42 PM 45.5458 -105.6061 279° West 358 412 40,000  Level Salt Lake Center
Thu 03:33:44 PM 45.5589 -105.7458 278° West 358 412 40,000  Level Salt Lake Center
Thu 03:34:46 PM 45.5758 -105.9128 278° West 356 410 40,000  Level Salt Lake Center
Thu 03:35:48 PM 45.5894 -106.0533 278° West 358 412 40,000  Level Salt Lake Center
Thu 03:36:51 PM 45.6039 -106.1942 278° West 359 413 40,000  Level Salt Lake Center
Thu 03:37:53 PM 45.6175 -106.3353 278° West 360 414 40,000  Level Salt Lake Center
Thu 03:38:55 PM 45.6308 -106.4769 278° West 361 415 40,000  Level Salt Lake Center
Thu 03:39:57 PM 45.6406 -106.6164 276° West 358 412 40,000  Level Salt Lake Center
Thu 03:40:59 PM 45.6564 -106.7853 278° West 357 411 40,000  Level Salt Lake Center
Thu 03:42:01 PM 45.6700 -106.9278 278° West 360 414 40,000  Level Salt Lake Center
Thu 03:43:03 PM 45.6833 -107.0736 278° West 366 421 40,000  Level Salt Lake Center
Thu 03:44:05 PM 45.6961 -107.2197 277° West 370 426 40,000  Level Salt Lake Center
Thu 03:45:07 PM 45.7086 -107.3614 277° West 364 419 40,000  Level Salt Lake Center
Thu 03:46:09 PM 45.7225 -107.5342 277° West 366 421 40,000  Level Salt Lake Center
Thu 03:47:11 PM 45.7347 -107.6781 277° West 366 421 40,000  Level Salt Lake Center
Thu 03:48:13 PM 45.7467 -107.8214 277° West 366 421 40,000  Level Salt Lake Center
Thu 03:49:15 PM 45.7583 -107.9697 276° West 374 430 40,000  Level Salt Lake Center
Thu 03:50:17 PM 45.7692 -108.1125 276° West 364 419 40,000  Level Salt Lake Center
Thu 03:51:19 PM 45.7808 -108.2600 277° West 374 430 40,000  Level Salt Lake Center
Thu 03:52:21 PM 45.7942 -108.4369 276° West 375 432 40,000  Level Salt Lake Center
Thu 03:53:23 PM 45.8069 -108.5897 277° West 384 442 40,000  Level Salt Lake Center
Thu 03:54:25 PM 45.8117 -108.7453 273° West 394 453 40,000  Level Salt Lake Center
Thu 03:55:27 PM 45.8167 -108.8903 273° West 373 429 40,000  Level Salt Lake Center
Thu 03:56:29 PM 45.8208 -109.0378 272° West 373 429 40,000  Level Salt Lake Center
Thu 03:57:31 PM 45.8258 -109.2186 272° West 380 437 40,000  Level Salt Lake Center
Thu 03:58:34 PM 45.8292 -109.3686 272° West 379 436 40,000  Level Salt Lake Center
Thu 03:59:35 PM 45.8328 -109.5183 272° West 378 435 40,000  Level Salt Lake Center
Thu 04:00:37 PM 45.8369 -109.6675 272° West 378 435 40,000  Level Salt Lake Center
Thu 04:01:40 PM 45.8403 -109.8178 272° West 378 435 40,000  Level Salt Lake Center
Thu 04:02:42 PM 45.8425 -109.9708 271° West 384 442 40,000  Level Salt Lake Center
Thu 04:03:44 PM 45.8453 -110.1533 271° West 383 441 40,000  Level Salt Lake Center
Thu 04:04:46 PM 45.8483 -110.3072 272° West 386 444 40,000  Level Salt Lake Center
Thu 04:05:48 PM 45.8494 -110.4608 271° West 387 445 40,000  Level Salt Lake Center
Thu 04:07:00 PM 45.8512 -111.9742 271° West  Level FlightAware Approximate
Thu 04:07:52 PM 45.8547 -110.7819 271° West 391 450 40,000  Level Salt Lake Center
Thu 04:08:54 PM 45.8558 -110.9342 271° West 386 444 40,600 677 Climbing Salt Lake Center
Thu 04:09:56 PM 45.8569 -111.1017 271° West 382 440 41,400 677 Climbing Salt Lake Center
Thu 04:10:58 PM 45.8603 -111.2578 272° West 382 440 42,000 629 Climbing Salt Lake Center
Thu 04:12:00 PM 45.8600 -111.4025 270° West 369 425 42,700 484 Climbing Salt Lake Center
Thu 04:13:02 PM 45.8597 -111.5456 270° West 362 417 43,000 145 Climbing Salt Lake Center
Thu 04:14:04 PM 45.8600 -111.6906 270° West 365 420 43,000  Level Salt Lake Center
Thu 04:15:06 PM 45.8606 -111.8417 270° West 376 433 43,000  Level Salt Lake Center
Thu 04:16:08 PM 45.8606 -112.0261 270° West 385 443 43,000  Level Salt Lake Center
Thu 04:17:10 PM 45.8608 -112.1828 270° West 391 450 43,000  Level Salt Lake Center
Thu 04:18:12 PM 45.8617 -112.3431 270° West 400 460 43,000  Level Salt Lake Center
Thu 04:19:14 PM 45.8611 -112.5031 270° West 402 463 43,000  Level Salt Lake Center
Thu 04:20:16 PM 45.8614 -112.6647 270° West 405 466 43,000  Level Salt Lake Center
Thu 04:21:19 PM 45.8617 -112.8264 270° West 405 466 43,000  Level Salt Lake Center
Thu 04:22:20 PM 45.8614 -113.0208 270° West 408 470 43,000  Level Salt Lake Center
Thu 04:23:22 PM 45.8608 -113.1831 270° West 408 470 43,000  Level Salt Lake Center
Thu 04:24:25 PM 45.8603 -113.3469 270° West 410 472 43,000  Level Salt Lake Center
Thu 04:25:27 PM 45.8592 -113.5117 270° West 413 475 43,000  Level Salt Lake Center
Thu 04:26:29 PM 45.8600 -113.6600 271° West 407 468 43,000  Level Salt Lake Center
Thu 04:27:31 PM 45.8583 -113.8539 269° West 406 467 43,000  Level Salt Lake Center
Thu 04:28:33 PM 45.8575 -114.0156 270° West 406 467 43,000  Level Salt Lake Center
Thu 04:29:35 PM 45.8544 -114.1761 268° West 403 464 43,000  Level Salt Lake Center
Thu 04:30:37 PM 45.8528 -114.3356 269° West 402 463 43,000  Level Salt Lake Center
Thu 04:31:39 PM 45.8506 -114.5036 269° West 405 466 43,000 210 Level Salt Lake Center
Thu 04:35:35 PM 45.8390 -115.1660 269° West 44,400 252 Climbing FlightAware ADS-B
Thu 04:36:49 PM 45.8350 -115.3670 268° West 434 499 44,300 -54 Descending FlightAware ADS-B
Thu 04:37:26 PM 45.8330 -115.4670 268° West 469 540 44,300  Level FlightAware ADS-B
Thu 04:38:01 PM 45.8300 -115.5570 267° West 453 521 44,300  Level FlightAware ADS-B
Thu 04:39:05 PM 45.8260 -115.7370 268° West 392 451 44,300  Level FlightAware ADS-B
Thu 04:40:24 PM 45.8200 -115.9510 268° West 44,300  Level FlightAware ADS-B
Thu 04:41:06 PM 45.8170 -116.0680 268° West 360 414 44,300  Level FlightAware ADS-B
Thu 04:42:32 PM 45.8100 -116.3080 268° West 44,300  Level FlightAware ADS-B
Thu 04:42:56 PM 45.8080 -116.3750 268° West 124 143 44,300  Level FlightAware ADS-B
Thu 04:43:39 PM 45.8040 -116.4930 267° West 302 348 44,300  Level FlightAware ADS-B
Thu 04:44:18 PM 45.8000 -116.6080 267° West 484 557 44,300  Level FlightAware ADS-B
Thu 04:44:50 PM 45.7970 -116.6990 267° West 431 496 44,300  Level FlightAware ADS-B
Thu 04:45:26 PM 45.7940 -116.8000 268° West 488 562 44,300  Level FlightAware ADS-B
Thu 04:46:10 PM 45.7890 -116.9220 267° West 547 629 44,300  Level FlightAware ADS-B
Thu 04:46:42 PM 45.7860 -117.0130 267° West 519 597 44,300  Level FlightAware ADS-B
Thu 04:47:18 PM 45.7820 -117.1150 267° West 486 559 44,300  Level FlightAware ADS-B
Thu 04:48:00 PM 45.7770 -117.2380 267° West 606 697 44,300 -81 Level FlightAware ADS-B
Thu 04:48:32 PM 45.7740 -117.3290 267° West 238 274 44,200 -79 Descending FlightAware ADS-B
Thu 04:49:16 PM 45.7690 -117.4560 267° West 410 472 44,200 68 Level FlightAware ADS-B
Thu 04:50:00 PM 45.7640 -117.5790 267° West 733 844 44,300  Climbing FlightAware ADS-B
Thu 04:50:33 PM 45.7600 -117.6770 267° West 476 548 44,200 -77 Descending FlightAware ADS-B
Thu 04:51:18 PM 45.7540 -117.8060 266° West 484 557 44,200  Level FlightAware ADS-B
Thu 04:51:50 PM 45.7500 -117.9010 267° West 434 499 44,200  Level FlightAware ADS-B
Thu 04:52:32 PM 45.7450 -118.0190 267° West 584 672 44,200  Level FlightAware ADS-B
Thu 04:53:06 PM 45.7400 -118.1140 266° West 404 465 44,200  Level FlightAware ADS-B
Thu 04:53:47 PM 45.7340 -118.2350 266° West 358 412 44,200  Level FlightAware ADS-B
Thu 04:54:29 PM 45.7290 -118.3560 267° West 274 315 44,200  Level FlightAware ADS-B
Thu 04:55:07 PM 45.7230 -118.4650 266° West 526 605 44,200  Level FlightAware ADS-B
Thu 04:55:49 PM 45.7170 -118.5860 266° West 632 727 44,200  Level FlightAware ADS-B
Thu 04:56:27 PM 45.7120 -118.6950 266° West 606 697 44,200  Level FlightAware ADS-B
Thu 04:57:11 PM 45.7050 -118.8210 265° West 382 440 44,200  Level FlightAware ADS-B
Thu 04:57:47 PM 45.7000 -118.9180 266° West 433 498 44,200  Level FlightAware ADS-B
Thu 04:58:35 PM 45.6930 -119.0620 266° West 373 429 44,200  Level FlightAware ADS-B
Thu 05:02:19 PM 45.6590 -119.7070 266° West 44,200  Level FlightAware ADS-B
Thu 05:02:50 PM 45.6550 -119.7830 266° West 360 414 44,200 -182 Level FlightAware ADS-B
Thu 05:03:25 PM 45.6480 -119.9050 265° West 529 609 44,000 -600 Descending FlightAware ADS-B
Thu 05:04:00 PM 45.6420 -120.0060 265° West 417 480 43,500 -1,077 Descending FlightAware ADS-B
Thu 05:04:43 PM 45.6340 -120.1360 265° West 440 506 42,600 -1,520 Descending FlightAware ADS-B
Thu 05:05:15 PM 45.6280 -120.2340 265° West 366 421 41,600 -2,083 Descending FlightAware ADS-B
Thu 05:05:55 PM 45.6220 -120.3480 266° West 375 432 40,100 -2,663 Descending FlightAware ADS-B
Thu 05:08:00 PM 45.5977 -120.7290 265° West 34,400 -2,764 Descending FlightAware ADS-B
Thu 05:08:40 PM 45.5901 -120.8470 265° West 446 513 32,500 -2,763 Descending FlightAware ADS-B
Thu 05:09:16 PM 45.5834 -120.9490 265° West 440 506 30,900 -2,929 Descending FlightAware ADS-B
Thu 05:10:04 PM 45.5741 -121.0880 265° West 442 509 28,400 -3,342 Descending FlightAware ADS-B
Thu 05:10:35 PM 45.5680 -121.1770 264° West 447 514 26,500 -3,581 Descending FlightAware ADS-B
Thu 05:11:06 PM 45.5618 -121.2660 264° West 441 507 24,700 -3,677 Descending FlightAware ADS-B
Thu 05:11:37 PM 45.5555 -121.3560 264° West 467 537 22,700 -3,387 Descending FlightAware ADS-B
Thu 05:12:08 PM 45.5495 -121.4400 264° West 403 464 21,200 -3,000 Descending FlightAware ADS-B
Thu 05:12:39 PM 45.5435 -121.5240 264° West 378 435 19,600 -3,143 Descending FlightAware ADS-B
Thu 05:13:11 PM 45.5373 -121.6100 264° West 408 470 17,900 -2,613 Descending FlightAware ADS-B
Thu 05:13:41 PM 45.5333 -121.6910 266° West 400 460 16,900 -1,315 Descending FlightAware ADS-B
Thu 05:14:24 PM 45.5422 -121.7970 277° West 378 435 16,300 -796 Descending FlightAware ADS-B
Thu 05:15:19 PM 45.5311 -121.9197 277° West 382 440 15,600 -933 Descending Seattle Center
Thu 05:15:54 PM 45.4936 -121.9842 230° Southwest 398 458 14,900 -1,182 Descending Seattle Center
Thu 05:16:25 PM 45.4528 -122.0544 230° Southwest 400 460 14,300 -1,082 Descending Seattle Center
Thu 05:16:55 PM 45.4247 -122.0994 228° Southwest 390 449 13,800 -787 Descending Seattle Center
Thu 05:17:26 PM 45.3894 -122.1581 229° Southwest 302 348 13,500 -590 Descending Seattle Center
Thu 05:17:56 PM 45.3683 -122.1922 229° Southwest 320 368 13,200 -717 Descending Seattle Center
Thu 05:18:58 PM 45.3053 -122.2347 205° Southwest 271 312 12,400 -1,073 Descending Seattle Center
Thu 05:19:59 PM 45.2411 -122.2625 197° South 245 282 11,000 -1,377 Descending Seattle Center
Thu 05:21:00 PM 45.2264 -122.3347 254° West 254 292 9,600 -1,463 Descending Seattle Center
Thu 05:22:02 PM 45.2786 -122.3975 320° Northwest 249 287 8,000 -1,366 Descending Seattle Center
Thu 05:23:03 PM 45.3342 -122.3903 North 218 251 6,800 -1,230 Descending Seattle Center
Thu 05:24:04 PM 45.3906 -122.3956 356° North 205 236 5,500 -885 Descending Seattle Center
Thu 05:25:05 PM 45.4231 -122.4500 310° West 182 209 5,000 -293 Descending Seattle Center
Thu 05:26:07 PM 45.4531 -122.5039 308° West 178 205 4,900 -585 Descending Seattle Center
Thu 05:27:08 PM 45.4692 -122.5703 289° West 179 206 3,800 -885 Descending Seattle Center
Thu 05:28:09 PM 45.4853 -122.6358 289° West 178 205 3,100 -393 Descending Seattle Center
Thu 05:29:10 PM 45.4697 -122.6958 250° West 165 190 3,000 -98 Descending Seattle Center

Login

Don't have an account? Register now (free) for customized features, flight alerts, and more!